createdAt,value
2024-02-09T00:00:36.276Z,3.13
2024-02-09T00:05:40.379Z,2.58
2024-02-09T00:10:43.529Z,2.78
2024-02-09T00:15:48.333Z,3.70
2024-02-09T00:20:52.296Z,2.40
2024-02-09T00:25:56.419Z,3.17
2024-02-09T00:30:59.618Z,2.70
2024-02-09T00:36:02.897Z,2.42
2024-02-09T00:41:06.905Z,2.25
2024-02-09T00:46:12.465Z,2.00
2024-02-09T00:51:15.368Z,2.20
2024-02-09T00:56:18.022Z,1.77
2024-02-09T01:01:22.456Z,1.67
2024-02-09T01:06:26.285Z,1.60
2024-02-09T01:11:28.975Z,1.85
2024-02-09T01:16:51.956Z,1.77
2024-02-09T01:22:13.083Z,2.05
2024-02-09T01:27:35.918Z,1.25
2024-02-09T01:32:57.501Z,1.45
2024-02-09T01:38:19.762Z,1.90
2024-02-09T01:43:41.222Z,1.48
2024-02-09T01:49:04.145Z,1.83
2024-02-09T01:54:26.856Z,1.55
2024-02-09T01:59:50.569Z,1.15
2024-02-09T02:05:12.445Z,1.75
2024-02-09T02:10:34.710Z,1.65
2024-02-09T02:15:57.120Z,2.03
2024-02-09T02:21:18.456Z,1.60
2024-02-09T02:26:40.012Z,1.77
2024-02-09T02:32:02.193Z,1.73
2024-02-09T02:37:23.400Z,1.70
2024-02-09T02:42:26.384Z,1.75
2024-02-09T02:47:31.008Z,1.50
2024-02-09T02:52:52.433Z,1.60
2024-02-09T02:58:14.792Z,1.90
2024-02-09T03:03:36.238Z,2.10
2024-02-09T03:08:47.224Z,2.20
2024-02-09T03:13:53.225Z,1.92
2024-02-09T03:18:56.141Z,1.80
2024-02-09T03:23:59.871Z,2.03
2024-02-09T03:29:03.015Z,1.70
2024-02-09T03:34:06.619Z,2.08
2024-02-09T03:39:09.945Z,1.95
2024-02-09T03:44:32.922Z,2.05
2024-02-09T03:49:36.571Z,2.00
2024-02-09T03:54:39.117Z,1.90
2024-02-09T03:59:43.736Z,2.17
2024-02-09T04:04:51.344Z,1.80
2024-02-09T04:10:15.716Z,2.15
2024-02-09T04:15:17.397Z,2.10
2024-02-09T04:20:21.615Z,1.70
2024-02-09T04:25:25.104Z,1.50
2024-02-09T04:30:28.068Z,1.77
2024-02-09T04:35:30.971Z,1.75
2024-02-09T04:40:34.732Z,1.90
2024-02-09T04:45:37.578Z,1.55
2024-02-09T04:50:42.137Z,2.20
2024-02-09T04:55:44.846Z,1.85
2024-02-09T05:00:47.888Z,1.52
2024-02-09T05:05:53.170Z,1.30
2024-02-09T05:10:57.139Z,1.83
2024-02-09T05:16:01.713Z,1.98
2024-02-09T05:21:05.856Z,1.67
2024-02-09T05:26:11.305Z,1.80
2024-02-09T05:31:15.125Z,2.25
2024-02-09T05:36:28.431Z,2.47
2024-02-09T05:41:32.377Z,2.63
2024-02-09T05:46:36.400Z,2.03
2024-02-09T05:51:39.345Z,2.28
2024-02-09T05:56:43.201Z,3.22
2024-02-09T06:01:47.161Z,2.28
2024-02-09T06:06:50.276Z,2.63
2024-02-09T06:11:53.108Z,2.13
2024-02-09T06:17:06.231Z,2.10
2024-02-09T06:22:12.178Z,2.10
2024-02-09T06:27:16.218Z,2.00
2024-02-09T06:32:20.617Z,2.42
2024-02-09T06:37:24.432Z,1.45
2024-02-09T06:42:27.885Z,2.65
2024-02-09T06:47:31.697Z,1.70
2024-02-09T06:52:34.428Z,1.95
2024-02-09T06:57:37.183Z,2.10
2024-02-09T07:02:41.101Z,2.10
2024-02-09T07:07:45.633Z,2.00
2024-02-09T07:12:49.052Z,2.20
2024-02-09T07:17:52.583Z,2.50
2024-02-09T07:22:55.711Z,2.45
2024-02-09T07:28:00.897Z,2.20
2024-02-09T07:33:04.971Z,2.00
2024-02-09T07:38:08.052Z,2.13
2024-02-09T07:43:11.262Z,2.28
2024-02-09T07:48:15.260Z,2.83
2024-02-09T07:53:17.947Z,1.95
2024-02-09T07:58:20.830Z,2.20
2024-02-09T08:03:24.650Z,2.88
2024-02-09T08:08:27.703Z,2.72
2024-02-09T08:13:31.583Z,2.63
2024-02-09T08:18:35.306Z,2.35
2024-02-09T08:23:38.035Z,2.22
2024-02-09T08:28:49.520Z,3.20
2024-02-09T08:33:53.126Z,2.92
2024-02-09T08:38:56.844Z,3.20
2024-02-09T08:44:00.502Z,3.53
2024-02-09T08:49:03.873Z,4.00
2024-02-09T08:54:07.898Z,3.25
2024-02-09T08:59:12.646Z,2.63
2024-02-09T09:04:17.912Z,2.90
2024-02-09T09:09:22.991Z,3.90
2024-02-09T09:14:27.576Z,3.08
2024-02-09T09:19:30.644Z,3.22
2024-02-09T09:24:39.620Z,3.53
2024-02-09T09:29:43.469Z,3.60
2024-02-09T09:34:46.594Z,3.85
2024-02-09T09:39:50.728Z,3.17
2024-02-09T09:44:55.558Z,3.05
2024-02-09T09:49:59.719Z,3.42
2024-02-09T09:55:03.989Z,2.72
2024-02-09T10:00:14.070Z,3.30
2024-02-09T10:05:19.323Z,3.30
2024-02-09T10:10:25.652Z,3.10
2024-02-09T10:15:30.999Z,3.17
2024-02-09T10:20:34.506Z,3.50
2024-02-09T10:25:40.474Z,3.28
2024-02-09T10:30:47.971Z,8.18
2024-02-09T10:35:55.789Z,3.63
2024-02-09T10:41:01.978Z,3.35
2024-02-09T10:46:06.807Z,3.10
2024-02-09T10:51:12.232Z,2.88
2024-02-09T10:56:16.042Z,3.88
2024-02-09T11:01:18.803Z,3.40
2024-02-09T11:06:22.794Z,3.88
2024-02-09T11:11:34.727Z,3.38
2024-02-09T11:16:48.235Z,4.07
2024-02-09T11:21:59.273Z,4.90
2024-02-09T11:27:05.136Z,4.32
2024-02-09T11:32:08.744Z,4.22
2024-02-09T11:37:15.725Z,4.90
2024-02-09T11:42:31.468Z,4.47
2024-02-09T11:47:40.819Z,4.60
2024-02-09T11:52:56.688Z,3.25
2024-02-09T11:58:07.829Z,3.67
2024-02-09T12:03:14.014Z,4.55
2024-02-09T12:08:21.271Z,4.18
2024-02-09T12:13:25.858Z,4.43
2024-02-09T12:18:30.016Z,5.60
2024-02-09T12:23:35.603Z,4.85
2024-02-09T12:28:39.650Z,4.75
2024-02-09T12:33:46.851Z,4.85
2024-02-09T12:39:06.868Z,4.43
2024-02-09T12:44:18.931Z,4.60
2024-02-09T12:49:22.436Z,4.95
2024-02-09T12:54:26.848Z,5.25
2024-02-09T12:59:35.794Z,4.28
2024-02-09T13:04:39.959Z,6.07
2024-02-09T13:09:44.388Z,5.80
2024-02-09T13:14:47.281Z,5.95
2024-02-09T13:19:50.107Z,6.10
2024-02-09T13:24:52.662Z,5.65
2024-02-09T13:29:56.661Z,5.13
2024-02-09T13:35:00.556Z,2.72
2024-02-09T13:40:05.723Z,1.90
2024-02-09T13:45:10.731Z,2.08
2024-02-09T13:50:17.102Z,3.35
2024-02-09T13:55:22.968Z,3.25
2024-02-09T14:00:26.476Z,2.88
2024-02-09T14:05:29.618Z,2.13
2024-02-09T14:10:36.672Z,2.42
2024-02-09T14:15:42.126Z,2.00
2024-02-09T14:20:48.409Z,1.20
2024-02-09T14:25:51.699Z,0.82
2024-02-09T14:30:54.721Z,2.67
2024-02-09T14:35:59.029Z,4.15
2024-02-09T14:41:03.107Z,1.85
2024-02-09T14:46:06.988Z,2.67
2024-02-09T14:51:10.630Z,3.65
2024-02-09T14:56:15.598Z,2.15
2024-02-09T15:01:18.999Z,2.00
2024-02-09T15:06:25.021Z,8.63
2024-02-09T15:11:29.030Z,5.07
2024-02-09T15:16:32.631Z,5.93
2024-02-09T15:21:35.662Z,1.92
2024-02-09T15:26:41.482Z,1.92
2024-02-09T15:31:46.286Z,4.95
2024-02-09T15:36:49.320Z,3.45
2024-02-09T15:41:54.451Z,3.22
2024-02-09T15:46:58.823Z,3.55
2024-02-09T15:52:02.782Z,3.33
2024-02-09T15:57:07.380Z,6.78
2024-02-09T16:02:10.627Z,6.30
2024-02-09T16:07:16.353Z,6.22
2024-02-09T16:12:20.127Z,6.90
2024-02-09T16:17:24.079Z,4.05
2024-02-09T16:22:30.656Z,3.83
2024-02-09T16:27:34.298Z,3.72
2024-02-09T16:32:37.632Z,3.80
2024-02-09T16:37:42.632Z,3.22
2024-02-09T16:42:45.825Z,3.63
2024-02-09T16:47:48.744Z,2.70
2024-02-09T16:52:52.389Z,2.30
2024-02-09T16:57:55.213Z,2.03
2024-02-09T17:02:59.809Z,1.65
2024-02-09T17:08:03.285Z,1.92
2024-02-09T17:13:06.763Z,1.20
2024-02-09T17:18:10.899Z,1.65
2024-02-09T17:23:16.454Z,2.03
2024-02-09T17:28:19.543Z,2.53
2024-02-09T17:33:24.664Z,3.38
2024-02-09T17:38:27.626Z,2.15
2024-02-09T17:43:30.583Z,2.03
2024-02-09T17:48:37.170Z,2.00
2024-02-09T17:53:40.456Z,1.85
2024-02-09T17:58:44.617Z,2.05
2024-02-09T18:03:48.608Z,1.77
2024-02-09T18:08:54.574Z,1.85
2024-02-09T18:13:59.231Z,2.00
2024-02-09T18:19:04.383Z,3.08
2024-02-09T18:24:10.820Z,2.85
2024-02-09T18:29:18.931Z,2.60
2024-02-09T18:34:22.642Z,2.88
2024-02-09T18:39:25.981Z,3.13
2024-02-09T18:44:30.043Z,2.70
2024-02-09T18:49:32.886Z,2.38
2024-02-09T18:54:37.690Z,2.33
2024-02-09T18:59:41.350Z,2.60
2024-02-09T19:04:45.419Z,2.55
2024-02-09T19:09:49.495Z,2.30
2024-02-09T19:14:53.870Z,2.25
2024-02-09T19:19:56.691Z,2.30
2024-02-09T19:24:59.572Z,1.48
2024-02-09T19:30:03.579Z,2.35
2024-02-09T19:35:09.676Z,1.88
2024-02-09T19:40:13.753Z,2.53
2024-02-09T19:45:21.867Z,2.33
2024-02-09T19:50:26.543Z,2.40
2024-02-09T19:55:29.478Z,2.10
2024-02-09T20:00:33.211Z,2.10
2024-02-09T20:05:38.341Z,2.08
2024-02-09T20:10:41.937Z,1.95
2024-02-09T20:15:47.219Z,2.67
2024-02-09T20:20:51.836Z,5.25
2024-02-09T20:25:55.749Z,5.85
2024-02-09T20:31:00.415Z,5.10
2024-02-09T20:36:03.927Z,3.13
2024-02-09T20:41:06.814Z,3.47
2024-02-09T20:46:13.994Z,2.10
2024-02-09T20:51:22.973Z,3.88
2024-02-09T20:56:27.675Z,3.53
2024-02-09T21:01:32.231Z,2.42
2024-02-09T21:06:39.629Z,3.38
2024-02-09T21:11:42.900Z,1.90
2024-02-09T21:16:45.681Z,1.52
2024-02-09T21:21:51.107Z,1.90
2024-02-09T21:26:54.246Z,1.67
2024-02-09T21:32:00.023Z,1.35
2024-02-09T21:37:03.248Z,1.40
2024-02-09T21:42:07.622Z,1.70
2024-02-09T21:47:10.831Z,1.88
2024-02-09T21:52:15.079Z,1.95
2024-02-09T21:57:20.498Z,1.77
2024-02-09T22:02:26.658Z,1.45
2024-02-09T22:07:29.713Z,1.23
2024-02-09T22:12:32.879Z,1.48
2024-02-09T22:17:38.817Z,1.15
2024-02-09T22:22:45.494Z,1.27
2024-02-09T22:27:54.272Z,1.10
2024-02-09T22:32:57.246Z,2.00
2024-02-09T22:38:00.740Z,2.30
2024-02-09T22:43:07.565Z,2.17
2024-02-09T22:48:11.838Z,2.08
2024-02-09T22:53:16.160Z,1.30
2024-02-09T22:58:19.021Z,1.70
2024-02-09T23:03:24.816Z,1.35
2024-02-09T23:08:27.999Z,1.40
2024-02-09T23:13:31.103Z,1.40
2024-02-09T23:18:37.368Z,1.30
2024-02-09T23:23:41.239Z,1.20
2024-02-09T23:28:44.372Z,1.48
2024-02-09T23:33:47.790Z,1.45
2024-02-09T23:38:51.171Z,1.67
2024-02-09T23:43:55.105Z,2.03
2024-02-09T23:48:57.963Z,1.33
2024-02-09T23:54:01.571Z,1.65
2024-02-09T23:59:06.176Z,1.30
